Freelance — WSP9410 — position and weather

sailwx.info

Track history (hours):
 
Tides and Currents Weather Stations Pressure Air Temp Water Temp Dewpoint Dewpoint Depression Visibility Wind Speed Wind Dir Waves Ship Positions

Freelance

Owner: BROCKMAN, DONALD C, BALBOA, CA. More information available from US FCC via Universal Licensing System and Coast Guard Vessel Documentation Center.

Last reported at 2017-Sep-25 14:30 UTC. Time now 2017-Sep-25 14:57 UTC.
Position N 33°34' W 117°54'.

Length 25 m.

Type: Passenger vessel. MMSI: 366977380.

Date/timePositionNaut miles runAvg speedWind from/ knotsBaromVisibWave heightAir tempDewpointWater temp
2017-Sep-25 14:30N 33°34' W 117°54'2 3.6
2017-Sep-25 14:01N 33°36' W 117°53'1 2.3
2017-Sep-25 13:31N 33°36' W 117°54'0 0.1
2017-Sep-25 13:00N 33°36' W 117°54'0 0.0
2017-Sep-25 01:47N 33°36' W 117°54'1 2.7
2017-Sep-25 01:17N 33°35' W 117°53'310.7
2017-Sep-25 01:00N 33°33' W 117°55'5 9.6
2017-Sep-25 00:30N 33°30' W 117°60'510.8
2017-Sep-25 00:00N 33°27' W 118°05'510.6
2017-Sep-24 23:30N 33°24' W 118°10'510.8
2017-Sep-24 23:00N 33°21' W 118°16'3 5.1
2017-Sep-24 22:30N 33°20' W 118°18'2 4.2
2017-Sep-24 22:00N 33°18' W 118°19'1 1.4
2017-Sep-24 21:30N 33°18' W 118°20'2 2.7
2017-Sep-24 20:36N 33°19' W 118°22'110.4
2017-Sep-24 20:30N 33°19' W 118°24'1 1.9
2017-Sep-24 20:00N 33°19' W 118°25'0 0.0
2017-Sep-24 19:30N 33°19' W 118°25'2 3.9
2017-Sep-24 19:00N 33°19' W 118°27'0 0.0
2017-Sep-24 18:30N 33°19' W 118°27'0 0.0
2017-Sep-24 18:00N 33°19' W 118°27'6 9.3
2017-Sep-24 17:20N 33°18' W 118°20'1 4.1
2017-Sep-24 17:00N 33°18' W 118°18'4 8.1
2017-Sep-24 16:30N 33°21' W 118°15'7 8.9
2017-Sep-24 15:41N 33°25' W 118°08'210.6
2017-Sep-24 15:30N 33°27' W 118°06'510.4
2017-Sep-24 15:00N 33°30' W 118°01'510.4
2017-Sep-24 14:30N 33°33' W 117°56'4 7.7
2017-Sep-24 14:00N 33°36' W 117°53'1 2.3
2017-Sep-24 13:30N 33°36' W 117°54'0 0.0
2017-Sep-24 06:44N 33°36' W 117°54'1 4.9
2017-Sep-24 06:30N 33°36' W 117°53'5 9.2
2017-Sep-24 06:00N 33°37' W 117°58'0 0.1
2017-Sep-24 05:30N 33°37' W 117°58'0 0.6
2017-Sep-24 05:00N 33°37' W 117°58'0 0.0
2017-Sep-24 04:23N 33°37' W 117°58'1 1.4
2017-Sep-24 04:00N 33°37' W 117°58'0 0.2
2017-Sep-24 03:24N 33°37' W 117°58'2 3.3
2017-Sep-24 02:50N 33°36' W 117°56'3 9.2
2017-Sep-24 02:30N 33°35' W 117°53'1 2.3
2017-Sep-24 01:55N 33°36' W 117°54'0 0.0
2017-Sep-24 01:30N 33°36' W 117°54'0 0.0
2017-Sep-24 01:00N 33°36' W 117°54'3 4.1
2017-Sep-24 00:21N 33°34' W 117°55'411.1
2017-Sep-24 00:00N 33°31' W 117°58'510.9
2017-Sep-23 23:30N 33°28' W 118°04'510.7
2017-Sep-23 23:00N 33°25' W 118°09'510.9
2017-Sep-23 22:30N 33°21' W 118°14'5 9.4
2017-Sep-23 22:00N 33°18' W 118°18'0 0.1
2017-Sep-23 21:27N 33°18' W 118°18'1 3.0
2017-Sep-23 21:00N 33°18' W 118°20'28 0.6
2017-Sep-22 00:05N 33°36' W 117°54'1 6.0
2017-Sep-21 23:58N 33°36' W 117°53'4 8.7
2017-Sep-21 23:30N 33°33' W 117°57'511.1
2017-Sep-21 23:00N 33°31' W 118°03'611.1
2017-Sep-21 22:28N 33°29' W 118°09'12 4.3
2017-Sep-21 19:44N 33°22' W 118°21'3 2.4
2017-Sep-21 18:30N 33°20' W 118°18'1 2.4
2017-Sep-21 18:00N 33°19' W 118°18'1 1.2
2017-Sep-21 17:05N 33°18' W 118°19'0 1.2
2017-Sep-21 16:50N 33°18' W 118°19'15 9.9
2017-Sep-21 15:19N 33°27' W 118°05'4 9.9
2017-Sep-21 14:57N 33°30' W 118°01'4 9.8
2017-Sep-21 14:30N 33°32' W 117°57'5 9.7
2017-Sep-21 14:00N 33°36' W 117°53'1 2.3
2017-Sep-21 13:30N 33°36' W 117°54'0 0.0
2017-Sep-21 02:34N 33°36' W 117°54'0 0.0
2017-Sep-21 02:30N 33°36' W 117°54'1 2.9
2017-Sep-21 02:00N 33°35' W 117°53'510.9
2017-Sep-21 01:31N 33°31' W 117°58'21 0.7
2017-Sep-19 16:59N 33°18' W 118°18'1610.4
2017-Sep-19 15:28N 33°28' W 118°04'510.1
2017-Sep-19 15:01N 33°31' W 117°59'510.4
2017-Sep-19 14:29N 33°34' W 117°54'2 3.1
2017-Sep-19 14:00N 33°36' W 117°53'1 2.3
2017-Sep-19 13:31N 33°36' W 117°54'0 0.0
2017-Sep-19 02:27N 33°36' W 117°54'1 1.1
2017-Sep-19 01:56N 33°36' W 117°53'4 8.5
2017-Sep-19 01:30N 33°33' W 117°55'510.8
2017-Sep-19 01:00N 33°29' W 118°00'510.8
2017-Sep-19 00:31N 33°26' W 118°05'510.7
2017-Sep-19 00:00N 33°22' W 118°10'710.8
2017-Sep-18 23:23N 33°19' W 118°17'9 2.2
2017-Sep-18 19:26N 33°19' W 118°27'7 4.1
2017-Sep-18 17:45N 33°18' W 118°19'1 4.2
2017-Sep-18 17:30N 33°19' W 118°18'1310.4
2017-Sep-18 16:16N 33°27' W 118°06'310.4
2017-Sep-18 16:00N 33°29' W 118°04'510.2
2017-Sep-18 15:30N 33°32' W 117°59'510.5
2017-Sep-18 15:00N 33°35' W 117°54'1 2.5
2017-Sep-18 14:30N 33°36' W 117°53'1 2.3
2017-Sep-18 14:00N 33°36' W 117°54'0 0.0
2017-Sep-18 13:25N 33°36' W 117°54'0 0.1
2017-Sep-18 13:00N 33°36' W 117°54'0 0.0
2017-Sep-18 02:26N 33°36' W 117°54'0 0.0
2017-Sep-18 02:00N 33°36' W 117°54'1 1.5
2017-Sep-18 01:30N 33°36' W 117°53'5 9.1
2017-Sep-18 01:00N 33°32' W 117°55'510.6
2017-Sep-18 00:30N 33°29' W 118°00'510.8
2017-Sep-18 00:00N 33°25' W 118°05'510.7
2017-Sep-17 23:30N 33°22' W 118°11'610.7
2017-Sep-17 22:58N 33°19' W 118°16'2 2.1
2017-Sep-17 21:52N 33°18' W 118°19'2 3.7
2017-Sep-17 21:20N 33°20' W 118°18'0 0.0
2017-Sep-17 20:57N 33°20' W 118°18'0 0.1
2017-Sep-17 20:02N 33°20' W 118°18'0 2.0
2017-Sep-17 20:00N 33°20' W 118°18'5 2.2
2017-Sep-17 17:46N 33°24' W 118°22'19 7.6
2017-Sep-17 15:12N 33°32' W 118°01'210.1
2017-Sep-17 14:57N 33°33' W 117°58'510.3
2017-Sep-17 14:30N 33°35' W 117°53'1 1.1
2017-Sep-17 14:00N 33°36' W 117°53'1 2.3
2017-Sep-17 13:30N 33°36' W 117°54'0 0.0
2017-Sep-17 13:00N 33°36' W 117°54'0 0.0
2017-Sep-17 06:53N 33°36' W 117°54'1 3.5
2017-Sep-17 06:31N 33°35' W 117°53'4 8.5
2017-Sep-17 06:00N 33°36' W 117°58'0 0.1
2017-Sep-17 04:38N 33°36' W 117°58'1 8.1
2017-Sep-17 04:30N 33°37' W 117°58'2 1.2
2017-Sep-17 02:33N 33°36' W 117°56'2 9.7
2017-Sep-17 02:21N 33°35' W 117°53'1 2.8
2017-Sep-17 02:00N 33°36' W 117°54'0 0.1
2017-Sep-17 01:30N 33°36' W 117°54'0 0.0
2017-Sep-17 01:00N 33°36' W 117°54'0 0.0
2017-Sep-17 00:30N 33°36' W 117°54'2 4.5
2017-Sep-17 00:01N 33°34' W 117°55'510.7
2017-Sep-16 23:30N 33°32' W 118°01'1611.0
2017-Sep-16 22:04N 33°25' W 118°18'4 4.3
2017-Sep-16 21:13N 33°23' W 118°21'1 4.4
2017-Sep-16 20:57N 33°22' W 118°20'1 2.0
2017-Sep-16 20:20N 33°21' W 118°19'3 6.7
2017-Sep-16 19:56N 33°18' W 118°18'0 0.0
2017-Sep-16 19:29N 33°18' W 118°18'0 0.8
2017-Sep-16 18:57N 33°18' W 118°19'1 1.9
2017-Sep-16 18:31N 33°19' W 118°18'0 0.0
2017-Sep-16 18:01N 33°19' W 118°18'0 0.0
2017-Sep-16 17:31N 33°19' W 118°18'13 9.0
2017-Sep-16 16:06N 33°27' W 118°06'210.2
2017-Sep-16 15:56N 33°28' W 118°04'3 7.6
2017-Sep-16 15:30N 33°30' W 118°01'510.1
2017-Sep-16 15:00N 33°33' W 117°57'4 8.6
2017-Sep-16 14:30N 33°36' W 117°53'1 2.3
2017-Sep-16 14:00N 33°36' W 117°54'0 0.0
2017-Sep-16 07:19N 33°36' W 117°54'1 2.9
2017-Sep-16 07:00N 33°35' W 117°54'4 4.3
2017-Sep-16 06:04N 33°37' W 117°58'0 0.3
2017-Sep-16 05:52N 33°37' W 117°58'0 0.4
2017-Sep-16 05:19N 33°37' W 117°58'2 2.2
2017-Sep-16 04:23N 33°36' W 117°56'4 9.2
2017-Sep-16 04:00N 33°35' W 117°52'0 0.0
2017-Sep-16 03:30N 33°35' W 117°52'0 0.0
2017-Sep-16 02:59N 33°35' W 117°52'2 4.6
2017-Sep-16 02:30N 33°36' W 117°54'1 2.5
2017-Sep-16 01:59N 33°35' W 117°53'510.3
2017-Sep-16 01:30N 33°32' W 117°56'510.8
2017-Sep-16 01:00N 33°28' W 118°01'510.8
2017-Sep-16 00:30N 33°25' W 118°07'1010.6
2017-Sep-15 23:33N 33°19' W 118°17'010.7
2017-Sep-15 23:30N 33°19' W 118°17'4 0.9
2017-Sep-15 18:57N 33°19' W 118°22'3 2.6
2017-Sep-15 17:55N 33°18' W 118°19'1 1.3
2017-Sep-15 17:29N 33°18' W 118°18'7 6.8
2017-Sep-15 16:29N 33°15' W 118°11'5 8.2
2017-Sep-15 15:50N 33°11' W 118°07'3 6.2
2017-Sep-15 15:18N 33°09' W 118°04'2 7.5
2017-Sep-15 15:00N 33°11' W 118°04'4 8.5
2017-Sep-15 14:30N 33°15' W 118°05'  
Track history (hours):
 
Tides and Currents Weather Stations Pressure Air Temp Water Temp Dewpoint Dewpoint Depression Visibility Wind Speed Wind Dir Waves Ship Positions

Freelance

Owner: BROCKMAN, DONALD C, BALBOA, CA. More information available from US FCC via Universal Licensing System and Coast Guard Vessel Documentation Center.

Last reported at 2017-Sep-25 14:30 UTC. Time now 2017-Sep-25 14:57 UTC.
Position N 33°34' W 117°54'.

Length 25 m.

Type: Passenger vessel. MMSI: 366977380.

Date/timePositionNaut miles runAvg speedWind from/ knotsBaromVisibWave heightAir tempDewpointWater temp
2017-Sep-25 14:30N 33°34' W 117°54'2 3.6
2017-Sep-25 14:01N 33°36' W 117°53'1 2.3
2017-Sep-25 13:31N 33°36' W 117°54'0 0.1
2017-Sep-25 13:00N 33°36' W 117°54'0 0.0
2017-Sep-25 01:47N 33°36' W 117°54'1 2.7
2017-Sep-25 01:17N 33°35' W 117°53'310.7
2017-Sep-25 01:00N 33°33' W 117°55'5 9.6
2017-Sep-25 00:30N 33°30' W 117°60'510.8
2017-Sep-25 00:00N 33°27' W 118°05'510.6
2017-Sep-24 23:30N 33°24' W 118°10'510.8
2017-Sep-24 23:00N 33°21' W 118°16'3 5.1
2017-Sep-24 22:30N 33°20' W 118°18'2 4.2
2017-Sep-24 22:00N 33°18' W 118°19'1 1.4
2017-Sep-24 21:30N 33°18' W 118°20'2 2.7
2017-Sep-24 20:36N 33°19' W 118°22'110.4
2017-Sep-24 20:30N 33°19' W 118°24'1 1.9
2017-Sep-24 20:00N 33°19' W 118°25'0 0.0
2017-Sep-24 19:30N 33°19' W 118°25'2 3.9
2017-Sep-24 19:00N 33°19' W 118°27'0 0.0
2017-Sep-24 18:30N 33°19' W 118°27'0 0.0
2017-Sep-24 18:00N 33°19' W 118°27'6 9.3
2017-Sep-24 17:20N 33°18' W 118°20'1 4.1
2017-Sep-24 17:00N 33°18' W 118°18'4 8.1
2017-Sep-24 16:30N 33°21' W 118°15'7 8.9
2017-Sep-24 15:41N 33°25' W 118°08'210.6
2017-Sep-24 15:30N 33°27' W 118°06'510.4
2017-Sep-24 15:00N 33°30' W 118°01'510.4
2017-Sep-24 14:30N 33°33' W 117°56'4 7.7
2017-Sep-24 14:00N 33°36' W 117°53'1 2.3
2017-Sep-24 13:30N 33°36' W 117°54'0 0.0
2017-Sep-24 06:44N 33°36' W 117°54'1 4.9
2017-Sep-24 06:30N 33°36' W 117°53'5 9.2
2017-Sep-24 06:00N 33°37' W 117°58'0 0.1
2017-Sep-24 05:30N 33°37' W 117°58'0 0.6
2017-Sep-24 05:00N 33°37' W 117°58'0 0.0
2017-Sep-24 04:23N 33°37' W 117°58'1 1.4
2017-Sep-24 04:00N 33°37' W 117°58'0 0.2
2017-Sep-24 03:24N 33°37' W 117°58'2 3.3
2017-Sep-24 02:50N 33°36' W 117°56'3 9.2
2017-Sep-24 02:30N 33°35' W 117°53'1 2.3
2017-Sep-24 01:55N 33°36' W 117°54'0 0.0
2017-Sep-24 01:30N 33°36' W 117°54'0 0.0
2017-Sep-24 01:00N 33°36' W 117°54'3 4.1
2017-Sep-24 00:21N 33°34' W 117°55'411.1
2017-Sep-24 00:00N 33°31' W 117°58'510.9
2017-Sep-23 23:30N 33°28' W 118°04'510.7
2017-Sep-23 23:00N 33°25' W 118°09'510.9
2017-Sep-23 22:30N 33°21' W 118°14'5 9.4
2017-Sep-23 22:00N 33°18' W 118°18'0 0.1
2017-Sep-23 21:27N 33°18' W 118°18'1 3.0
2017-Sep-23 21:00N 33°18' W 118°20'28 0.6
2017-Sep-22 00:05N 33°36' W 117°54'1 6.0
2017-Sep-21 23:58N 33°36' W 117°53'4 8.7
2017-Sep-21 23:30N 33°33' W 117°57'511.1
2017-Sep-21 23:00N 33°31' W 118°03'611.1
2017-Sep-21 22:28N 33°29' W 118°09'12 4.3
2017-Sep-21 19:44N 33°22' W 118°21'3 2.4
2017-Sep-21 18:30N 33°20' W 118°18'1 2.4
2017-Sep-21 18:00N 33°19' W 118°18'1 1.2
2017-Sep-21 17:05N 33°18' W 118°19'0 1.2
2017-Sep-21 16:50N 33°18' W 118°19'15 9.9
2017-Sep-21 15:19N 33°27' W 118°05'4 9.9
2017-Sep-21 14:57N 33°30' W 118°01'4 9.8
2017-Sep-21 14:30N 33°32' W 117°57'5 9.7
2017-Sep-21 14:00N 33°36' W 117°53'1 2.3
2017-Sep-21 13:30N 33°36' W 117°54'0 0.0
2017-Sep-21 02:34N 33°36' W 117°54'0 0.0
2017-Sep-21 02:30N 33°36' W 117°54'1 2.9
2017-Sep-21 02:00N 33°35' W 117°53'510.9
2017-Sep-21 01:31N 33°31' W 117°58'21 0.7
2017-Sep-19 16:59N 33°18' W 118°18'1610.4
2017-Sep-19 15:28N 33°28' W 118°04'510.1
2017-Sep-19 15:01N 33°31' W 117°59'510.4
2017-Sep-19 14:29N 33°34' W 117°54'2 3.1
2017-Sep-19 14:00N 33°36' W 117°53'1 2.3
2017-Sep-19 13:31N 33°36' W 117°54'0 0.0
2017-Sep-19 02:27N 33°36' W 117°54'1 1.1
2017-Sep-19 01:56N 33°36' W 117°53'4 8.5
2017-Sep-19 01:30N 33°33' W 117°55'510.8
2017-Sep-19 01:00N 33°29' W 118°00'510.8
2017-Sep-19 00:31N 33°26' W 118°05'510.7
2017-Sep-19 00:00N 33°22' W 118°10'710.8
2017-Sep-18 23:23N 33°19' W 118°17'9 2.2
2017-Sep-18 19:26N 33°19' W 118°27'7 4.1
2017-Sep-18 17:45N 33°18' W 118°19'1 4.2
2017-Sep-18 17:30N 33°19' W 118°18'1310.4
2017-Sep-18 16:16N 33°27' W 118°06'310.4
2017-Sep-18 16:00N 33°29' W 118°04'510.2
2017-Sep-18 15:30N 33°32' W 117°59'510.5
2017-Sep-18 15:00N 33°35' W 117°54'1 2.5
2017-Sep-18 14:30N 33°36' W 117°53'1 2.3
2017-Sep-18 14:00N 33°36' W 117°54'0 0.0
2017-Sep-18 13:25N 33°36' W 117°54'0 0.1
2017-Sep-18 13:00N 33°36' W 117°54'0 0.0
2017-Sep-18 02:26N 33°36' W 117°54'0 0.0
2017-Sep-18 02:00N 33°36' W 117°54'1 1.5
2017-Sep-18 01:30N 33°36' W 117°53'5 9.1
2017-Sep-18 01:00N 33°32' W 117°55'510.6
2017-Sep-18 00:30N 33°29' W 118°00'510.8
2017-Sep-18 00:00N 33°25' W 118°05'510.7
2017-Sep-17 23:30N 33°22' W 118°11'610.7
2017-Sep-17 22:58N 33°19' W 118°16'2 2.1
2017-Sep-17 21:52N 33°18' W 118°19'2 3.7
2017-Sep-17 21:20N 33°20' W 118°18'0 0.0
2017-Sep-17 20:57N 33°20' W 118°18'0 0.1
2017-Sep-17 20:02N 33°20' W 118°18'0 2.0
2017-Sep-17 20:00N 33°20' W 118°18'5 2.2
2017-Sep-17 17:46N 33°24' W 118°22'19 7.6
2017-Sep-17 15:12N 33°32' W 118°01'210.1
2017-Sep-17 14:57N 33°33' W 117°58'510.3
2017-Sep-17 14:30N 33°35' W 117°53'1 1.1
2017-Sep-17 14:00N 33°36' W 117°53'1 2.3
2017-Sep-17 13:30N 33°36' W 117°54'0 0.0
2017-Sep-17 13:00N 33°36' W 117°54'0 0.0
2017-Sep-17 06:53N 33°36' W 117°54'1 3.5
2017-Sep-17 06:31N 33°35' W 117°53'4 8.5
2017-Sep-17 06:00N 33°36' W 117°58'0 0.1
2017-Sep-17 04:38N 33°36' W 117°58'1 8.1
2017-Sep-17 04:30N 33°37' W 117°58'2 1.2
2017-Sep-17 02:33N 33°36' W 117°56'2 9.7
2017-Sep-17 02:21N 33°35' W 117°53'1 2.8
2017-Sep-17 02:00N 33°36' W 117°54'0 0.1
2017-Sep-17 01:30N 33°36' W 117°54'0 0.0
2017-Sep-17 01:00N 33°36' W 117°54'0 0.0
2017-Sep-17 00:30N 33°36' W 117°54'2 4.5
2017-Sep-17 00:01N 33°34' W 117°55'510.7
2017-Sep-16 23:30N 33°32' W 118°01'1611.0
2017-Sep-16 22:04N 33°25' W 118°18'4 4.3
2017-Sep-16 21:13N 33°23' W 118°21'1 4.4
2017-Sep-16 20:57N 33°22' W 118°20'1 2.0
2017-Sep-16 20:20N 33°21' W 118°19'3 6.7
2017-Sep-16 19:56N 33°18' W 118°18'0 0.0
2017-Sep-16 19:29N 33°18' W 118°18'0 0.8
2017-Sep-16 18:57N 33°18' W 118°19'1 1.9
2017-Sep-16 18:31N 33°19' W 118°18'0 0.0
2017-Sep-16 18:01N 33°19' W 118°18'0 0.0
2017-Sep-16 17:31N 33°19' W 118°18'13 9.0
2017-Sep-16 16:06N 33°27' W 118°06'210.2
2017-Sep-16 15:56N 33°28' W 118°04'3 7.6
2017-Sep-16 15:30N 33°30' W 118°01'510.1
2017-Sep-16 15:00N 33°33' W 117°57'4 8.6
2017-Sep-16 14:30N 33°36' W 117°53'1 2.3
2017-Sep-16 14:00N 33°36' W 117°54'0 0.0
2017-Sep-16 07:19N 33°36' W 117°54'1 2.9
2017-Sep-16 07:00N 33°35' W 117°54'4 4.3
2017-Sep-16 06:04N 33°37' W 117°58'0 0.3
2017-Sep-16 05:52N 33°37' W 117°58'0 0.4
2017-Sep-16 05:19N 33°37' W 117°58'2 2.2
2017-Sep-16 04:23N 33°36' W 117°56'4 9.2
2017-Sep-16 04:00N 33°35' W 117°52'0 0.0
2017-Sep-16 03:30N 33°35' W 117°52'0 0.0
2017-Sep-16 02:59N 33°35' W 117°52'2 4.6
2017-Sep-16 02:30N 33°36' W 117°54'1 2.5
2017-Sep-16 01:59N 33°35' W 117°53'510.3
2017-Sep-16 01:30N 33°32' W 117°56'510.8
2017-Sep-16 01:00N 33°28' W 118°01'510.8
2017-Sep-16 00:30N 33°25' W 118°07'1010.6
2017-Sep-15 23:33N 33°19' W 118°17'010.7
2017-Sep-15 23:30N 33°19' W 118°17'4 0.9
2017-Sep-15 18:57N 33°19' W 118°22'3 2.6
2017-Sep-15 17:55N 33°18' W 118°19'1 1.3
2017-Sep-15 17:29N 33°18' W 118°18'7 6.8
2017-Sep-15 16:29N 33°15' W 118°11'5 8.2
2017-Sep-15 15:50N 33°11' W 118°07'3 6.2
2017-Sep-15 15:18N 33°09' W 118°04'2 7.5
2017-Sep-15 15:00N 33°11' W 118°04'4 8.5
2017-Sep-15 14:30N 33°15' W 118°05'  

Dump ship's entire track history